Two Harbors, MN

9:25 AM CST on January 24, 2017 (GMT -0600)
Helgeson

Weather History for KTWM - November, 2012

Change the Weather History Date:

Sunday, November 11, 2012

  Actual Average Record
Temperature  
Mean Temperature 34 °F -  
Max Temperature 46 °F 38 °F 59 °F (1954)
Min Temperature 23 °F 26 °F 3 °F (1986)
Degree Days  
Heating Degree Days 30    
Moisture  
Dew Point 29 °F    
Average Humidity 78    
Maximum Humidity 87    
Minimum Humidity 64    
Precipitation  
Precipitation 0.14 in - - ()
Sea Level Pressure  
Sea Level Pressure 29.60 in    
Wind  
Wind Speed 6 mph (West)    
Max Wind Speed 16 mph    
Max Gust Speed 22 mph    
Visibility 8 miles    
Events Rain , Snow , Thunderstorm    
Averages and records for this station are not official NWS values.
T = Trace of Precipitation, MM = Missing Value Source: NWS Daily Summary

Daily Weather History Graph

Daily Weather History Graph

Search for Another Location

Airport or City:

Trip Planner

Search our weather history database for the weather conditions in past years. The results will help you decide how hot, cold, wet, or windy it might be!

Date:

Astronomy

Nov. 11, 2012 Rise Set
Actual Time 7:05 AM CST 4:36 PM CST
Civil Twilight 6:32 AM CST 5:09 PM CST
Nautical Twilight 5:55 AM CST 5:45 PM CST
Astronomical Twilight 5:19 AM CST 6:21 PM CST
Moon 4:11 AM CST (11/11) 3:06 PM CST (11/11)
Length of Visible Light 10h 36m
Length of Day
9h 30m
Waning Crescent, 7% of the Moon is Illuminated
Nov 11
Waning Crescent
Nov 13
New
Nov 20
First Quarter
Nov 28
Full
Dec 6
Last Quarter

Hourly Weather History & Observations

Time (CST) Temp. Windchill Dew Point Humidity Pressure Visibility Wind Dir Wind Speed Gust Speed Precip Events Conditions
12:32 AM 42.8 °F - 37.4 °F 81% 29.52 in 3.0 mi Calm Calm - N/A Thunderstorm Unknown
12:51 AM 42.8 °F 39.3 °F 37.4 °F 81% 29.50 in 3.0 mi NE 5.8 mph - 0.01 in   Drizzle
1:11 AM 42.8 °F 40.1 °F 37.4 °F 81% 29.51 in 4.0 mi North 4.6 mph - N/A Rain Light Rain
1:32 AM 42.8 °F 38.6 °F 37.4 °F 81% 29.49 in 5.0 mi NNE 6.9 mph - 0.07 in Rain Rain
1:51 AM 42.8 °F 41.1 °F 37.4 °F 81% 29.46 in 7.0 mi NE 3.5 mph - 0.12 in Rain Light Rain
2:11 AM 42.8 °F 38.0 °F 39.2 °F 87% 29.46 in 5.0 mi ENE 8.1 mph - N/A   Overcast
2:32 AM 42.8 °F 37.5 °F 39.2 °F 87% 29.44 in 3.0 mi ENE 9.2 mph - 0.01 in   Overcast
2:51 AM 44.6 °F - 39.2 °F 81% 29.49 in 2.0 mi Calm Calm - 0.01 in   Haze
3:11 AM 44.6 °F - 39.2 °F 81% 29.48 in 0.8 mi Calm Calm - N/A   Haze
3:32 AM 44.6 °F 42.2 °F 39.2 °F 81% 29.46 in 0.5 mi NE 4.6 mph - N/A   Haze
3:51 AM 44.6 °F - 39.2 °F 81% 29.47 in 0.2 mi Calm Calm - N/A   Haze
4:12 AM 44.6 °F 43.1 °F 39.2 °F 81% 29.48 in 0.2 mi ESE 3.5 mph - N/A   Haze
4:31 AM 44.6 °F - 39.2 °F 81% 29.47 in 0.2 mi Calm Calm - N/A   Haze
4:51 AM 44.6 °F - 39.2 °F 81% 29.48 in 0.2 mi Calm Calm - N/A   Haze
5:11 AM 44.6 °F - 39.2 °F 81% 29.49 in 0.2 mi Calm Calm - N/A   Haze
5:31 AM 44.6 °F - 39.2 °F 81% 29.48 in 0.2 mi Calm Calm - N/A   Drizzle
5:51 AM 44.6 °F 42.2 °F 39.2 °F 81% 29.50 in 0.8 mi SSW 4.6 mph - N/A Rain Light Rain
6:11 AM 46.4 °F 41.5 °F 41.0 °F 81% 29.51 in 2.0 mi SW 10.4 mph - N/A   Haze
6:31 AM 46.4 °F 41.1 °F 42.8 °F 87% 29.51 in 5.0 mi SW 11.5 mph - N/A   Haze
6:52 AM 46.4 °F 41.9 °F 42.8 °F 87% 29.52 in 7.0 mi WSW 9.2 mph - N/A   Overcast
7:31 AM 46.4 °F 41.1 °F 41.0 °F 81% 29.53 in 7.0 mi WSW 11.5 mph - N/A   Overcast
8:11 AM 42.8 °F 36.2 °F 37.4 °F 81% 29.54 in 10.0 mi West 12.7 mph 21.9 mph N/A   Overcast
8:31 AM 41.0 °F 34.7 °F 35.6 °F 81% 29.56 in 10.0 mi WSW 10.4 mph - N/A   Overcast
8:52 AM 39.2 °F 33.0 °F 35.6 °F 87% 29.56 in 10.0 mi West 9.2 mph - N/A   Overcast
9:52 AM 37.4 °F 30.8 °F 32.0 °F 81% 29.60 in 10.0 mi WSW 9.2 mph 12.7 mph N/A Rain Light Rain
10:11 AM 37.4 °F 30.3 °F 32.0 °F 81% 29.62 in 10.0 mi WSW 10.4 mph 18.4 mph N/A   Overcast
10:31 AM 35.6 °F 26.2 °F 30.2 °F 81% 29.61 in 10.0 mi WSW 15.0 mph 18.4 mph N/A   Overcast
10:52 AM 35.6 °F 28.0 °F 30.2 °F 81% 29.60 in 10.0 mi WSW 10.4 mph 18.4 mph N/A   Overcast
11:11 AM 35.6 °F 28.6 °F 30.2 °F 81% 29.60 in 10.0 mi West 9.2 mph - N/A   Overcast
11:31 AM 35.6 °F 28.6 °F 30.2 °F 81% 29.61 in 10.0 mi West 9.2 mph - N/A   Overcast
11:52 AM 33.8 °F 24.8 °F 30.2 °F 87% 29.62 in 10.0 mi West 12.7 mph 18.4 mph N/A   Overcast
12:11 PM 33.8 °F 27.0 °F 30.2 °F 87% 29.62 in 10.0 mi West 8.1 mph - N/A   Overcast
12:31 PM 33.8 °F 27.0 °F 28.4 °F 81% 29.62 in 10.0 mi West 8.1 mph - N/A   Overcast
12:52 PM 35.6 °F 28.6 °F 28.4 °F 75% 29.61 in 10.0 mi WSW 9.2 mph - N/A   Overcast
1:11 PM 33.8 °F 27.0 °F 28.4 °F 81% 29.61 in 10.0 mi WSW 8.1 mph - N/A   Overcast
1:31 PM 33.8 °F 26.4 °F 28.4 °F 81% 29.61 in 10.0 mi West 9.2 mph - N/A   Overcast
1:51 PM 33.8 °F 29.6 °F 28.4 °F 81% 29.59 in 10.0 mi West 4.6 mph - N/A   Overcast
2:11 PM 33.8 °F 27.0 °F 28.4 °F 81% 29.62 in 7.0 mi West 8.1 mph - N/A Snow Light Snow
2:32 PM 33.8 °F 26.4 °F 28.4 °F 81% 29.63 in 5.0 mi WSW 9.2 mph - N/A   Haze
2:51 PM 33.8 °F 26.4 °F 26.6 °F 75% 29.63 in 10.0 mi West 9.2 mph 17.3 mph N/A   Overcast
3:11 PM 33.8 °F 27.7 °F 26.6 °F 75% 29.61 in 10.0 mi West 6.9 mph - N/A   Overcast
3:32 PM 32.0 °F 24.2 °F 26.6 °F 80% 29.63 in 10.0 mi West 9.2 mph - N/A   Overcast
3:51 PM 30.2 °F 23.4 °F 24.8 °F 80% 29.63 in 10.0 mi West 6.9 mph 17.3 mph N/A   Overcast
4:11 PM 30.2 °F 21.9 °F 26.6 °F 86% 29.63 in 10.0 mi West 9.2 mph - N/A   Overcast
4:32 PM 30.2 °F 22.6 °F 24.8 °F 80% 29.64 in 10.0 mi West 8.1 mph - N/A   Overcast
4:51 PM 30.2 °F 22.6 °F 24.8 °F 80% 29.65 in 10.0 mi West 8.1 mph 17.3 mph N/A   Overcast
5:11 PM 30.2 °F 24.3 °F 23.0 °F 75% 29.65 in 10.0 mi West 5.8 mph - N/A   Overcast
5:32 PM 30.2 °F 24.3 °F 23.0 °F 75% 29.66 in 10.0 mi West 5.8 mph - N/A   Overcast
5:51 PM 28.4 °F 22.2 °F 21.2 °F 74% 29.65 in 10.0 mi West 5.8 mph 19.6 mph N/A   Overcast
6:11 PM 28.4 °F 19.1 °F 21.2 °F 74% 29.67 in 10.0 mi West 10.4 mph 21.9 mph N/A   Overcast
6:32 PM 28.4 °F 19.7 °F 19.4 °F 69% 29.69 in 10.0 mi WNW 9.2 mph - N/A   Overcast
6:51 PM 28.4 °F 21.2 °F 19.4 °F 69% 29.70 in 10.0 mi West 6.9 mph - N/A   Overcast
7:11 PM 28.4 °F 19.1 °F 19.4 °F 69% 29.70 in 10.0 mi West 10.4 mph 17.3 mph N/A   Overcast
7:31 PM 26.6 °F 16.8 °F 19.4 °F 74% 29.70 in 10.0 mi West 10.4 mph 16.1 mph N/A   Overcast
7:51 PM 26.6 °F 16.2 °F 17.6 °F 69% 29.70 in 10.0 mi West 11.5 mph 17.3 mph N/A   Overcast
8:12 PM 26.6 °F 18.2 °F 17.6 °F 69% 29.70 in 10.0 mi West 8.1 mph 18.4 mph N/A   Overcast
8:31 PM 26.6 °F 15.7 °F 17.6 °F 69% 29.70 in 10.0 mi West 12.7 mph 16.1 mph N/A   Overcast
8:51 PM 26.6 °F 14.3 °F 15.8 °F 64% 29.72 in 10.0 mi West 16.1 mph - N/A   Overcast
9:12 PM 24.8 °F 12.9 °F 15.8 °F 69% 29.72 in 10.0 mi WSW 13.8 mph 20.7 mph N/A   Overcast
9:31 PM 24.8 °F 14.6 °F 15.8 °F 69% 29.74 in 10.0 mi West 10.4 mph 20.7 mph N/A   Overcast
9:51 PM 24.8 °F 15.3 °F 15.8 °F 69% 29.74 in 10.0 mi West 9.2 mph 17.3 mph N/A   Overcast
10:12 PM 24.8 °F 12.9 °F 14.0 °F 64% 29.74 in 10.0 mi WSW 13.8 mph 18.4 mph N/A   Overcast
10:31 PM 24.8 °F 13.4 °F 14.0 °F 64% 29.74 in 10.0 mi WSW 12.7 mph 19.6 mph N/A Snow Light Snow
10:51 PM 24.8 °F 14.6 °F 14.0 °F 64% 29.75 in 10.0 mi WSW 10.4 mph - N/A Snow Light Snow
11:11 PM 23.0 °F 12.4 °F 14.0 °F 68% 29.74 in 10.0 mi WSW 10.4 mph 16.1 mph N/A   Overcast
11:31 PM 23.0 °F 13.9 °F 14.0 °F 68% 29.74 in 10.0 mi WSW 8.1 mph - N/A Snow Light Snow
11:51 PM 23.0 °F 12.4 °F 15.8 °F 74% 29.75 in 10.0 mi SW 10.4 mph - N/A Snow Light Snow